createdAt,value
2022-11-27T00:01:36.293Z,8.41
2022-11-27T00:04:04.099Z,8.02
2022-11-27T00:06:31.916Z,8.25
2022-11-27T00:09:05.279Z,8.19
2022-11-27T00:11:33.028Z,8.04
2022-11-27T00:14:01.669Z,8.18
2022-11-27T00:16:29.562Z,8.42
2022-11-27T00:18:57.333Z,8.14
2022-11-27T00:21:31.848Z,8.02
2022-11-27T00:24:02.119Z,7.86
2022-11-27T00:26:35.954Z,7.88
2022-11-27T00:29:05.462Z,7.62
2022-11-27T00:31:34.417Z,7.81
2022-11-27T00:34:07.026Z,7.04
2022-11-27T00:36:35.218Z,7.74
2022-11-27T00:39:02.180Z,7.74
2022-11-27T00:41:30.899Z,7.92
2022-11-27T00:43:58.685Z,7.66
2022-11-27T00:46:29.795Z,7.45
2022-11-27T00:49:01.451Z,7.70
2022-11-27T00:51:29.846Z,7.99
2022-11-27T00:53:57.201Z,8.04
2022-11-27T00:56:28.235Z,7.72
2022-11-27T00:58:55.756Z,7.93
2022-11-27T01:01:32.856Z,7.81
2022-11-27T01:04:01.777Z,7.49
2022-11-27T01:06:30.904Z,7.74
2022-11-27T01:09:00.187Z,7.60
2022-11-27T01:11:30.764Z,8.00
2022-11-27T01:14:05.363Z,7.99
2022-11-27T01:16:38.525Z,8.45
2022-11-27T01:19:11.626Z,7.39
2022-11-27T01:21:38.747Z,7.59
2022-11-27T01:24:06.574Z,7.98
2022-11-27T01:26:33.899Z,8.00
2022-11-27T01:29:01.019Z,7.74
2022-11-27T01:31:31.467Z,7.56
2022-11-27T01:34:02.762Z,7.43
2022-11-27T01:36:30.702Z,6.93
2022-11-27T01:38:58.375Z,7.47
2022-11-27T01:41:39.763Z,7.83
2022-11-27T01:44:25.188Z,8.25
2022-11-27T01:46:54.003Z,7.52
2022-11-27T01:49:41.379Z,7.74
2022-11-27T01:52:41.752Z,7.20
2022-11-27T01:55:25.798Z,7.02
2022-11-27T01:58:07.426Z,7.31
2022-11-27T02:00:35.083Z,7.88
2022-11-27T02:03:02.306Z,7.46
2022-11-27T02:05:30.208Z,8.06
2022-11-27T02:08:02.875Z,8.04
2022-11-27T02:10:47.999Z,8.40
2022-11-27T02:13:41.150Z,7.22
2022-11-27T02:16:46.926Z,8.29
2022-11-27T02:19:44.029Z,6.76
2022-11-27T02:22:32.482Z,7.20
2022-11-27T02:25:39.113Z,6.61
2022-11-27T02:28:24.943Z,7.13
2022-11-27T02:31:34.903Z,6.43
2022-11-27T02:34:54.387Z,7.17
2022-11-27T02:37:50.445Z,7.06
2022-11-27T02:40:32.044Z,6.88
2022-11-27T02:43:22.431Z,7.28
2022-11-27T02:45:51.964Z,6.47
2022-11-27T02:48:27.369Z,7.13
2022-11-27T02:50:55.928Z,7.49
2022-11-27T02:53:32.830Z,7.58
2022-11-27T02:56:00.789Z,7.22
2022-11-27T02:58:29.820Z,6.67
2022-11-27T03:00:57.972Z,7.00
2022-11-27T03:03:35.388Z,6.31
2022-11-27T03:06:06.240Z,6.21
2022-11-27T03:08:56.220Z,7.23
2022-11-27T03:11:23.657Z,6.02
2022-11-27T03:14:05.955Z,7.07
2022-11-27T03:17:18.080Z,6.45
2022-11-27T03:20:00.705Z,7.26
2022-11-27T03:22:28.402Z,7.61
2022-11-27T03:24:55.675Z,7.66
2022-11-27T03:27:32.082Z,6.57
2022-11-27T03:30:11.847Z,6.40
2022-11-27T03:32:39.255Z,6.86
2022-11-27T03:35:11.166Z,7.30
2022-11-27T03:37:38.932Z,7.10
2022-11-27T03:40:08.800Z,7.40
2022-11-27T03:43:19.838Z,7.73
2022-11-27T03:46:05.141Z,7.57
2022-11-27T03:48:48.547Z,7.48
2022-11-27T03:51:25.328Z,6.56
2022-11-27T03:54:10.897Z,6.59
2022-11-27T03:57:13.330Z,6.69
2022-11-27T03:59:47.046Z,6.91
2022-11-27T04:02:15.580Z,6.91
2022-11-27T04:04:42.973Z,7.31
2022-11-27T04:07:17.896Z,7.59
2022-11-27T04:09:47.129Z,7.79
2022-11-27T04:12:14.280Z,6.75
2022-11-27T04:14:41.520Z,6.13
2022-11-27T04:17:09.115Z,6.09
2022-11-27T04:19:36.069Z,6.07
2022-11-27T04:22:03.300Z,6.75
2022-11-27T04:24:30.905Z,6.03
2022-11-27T04:26:57.841Z,6.46
2022-11-27T04:29:24.997Z,6.77
2022-11-27T04:31:52.219Z,6.67
2022-11-27T04:34:19.414Z,6.76
2022-11-27T04:36:46.390Z,6.14
2022-11-27T04:39:13.741Z,5.76
2022-11-27T04:41:40.882Z,5.54
2022-11-27T04:44:07.840Z,5.73
2022-11-27T04:46:35.051Z,5.31
2022-11-27T04:49:02.056Z,5.56
2022-11-27T04:51:28.983Z,5.52
2022-11-27T04:53:56.379Z,6.06
2022-11-27T04:56:23.736Z,6.57
2022-11-27T04:58:50.896Z,6.05
2022-11-27T05:01:18.169Z,6.30
2022-11-27T05:03:48.680Z,5.62
2022-11-27T05:06:16.108Z,5.96
2022-11-27T05:08:43.836Z,6.52
2022-11-27T05:11:17.334Z,6.66
2022-11-27T05:13:45.262Z,6.69
2022-11-27T05:16:12.369Z,6.64
2022-11-27T05:18:39.384Z,6.33
2022-11-27T05:21:08.090Z,6.42
2022-11-27T05:23:35.714Z,6.15
2022-11-27T05:26:03.462Z,6.68
2022-11-27T05:28:30.838Z,6.51
2022-11-27T05:30:58.290Z,6.81
2022-11-27T05:33:25.408Z,6.25
2022-11-27T05:35:52.720Z,6.84
2022-11-27T05:38:20.832Z,6.75
2022-11-27T05:40:48.594Z,6.41
2022-11-27T05:43:15.522Z,6.05
2022-11-27T05:45:42.755Z,5.96
2022-11-27T05:48:12.025Z,6.38
2022-11-27T05:50:39.173Z,6.72
2022-11-27T05:53:06.246Z,6.35
2022-11-27T05:55:33.500Z,6.31
2022-11-27T05:58:00.476Z,6.36
2022-11-27T06:00:27.714Z,6.82
2022-11-27T06:02:56.329Z,5.73
2022-11-27T06:05:23.664Z,5.95
2022-11-27T06:07:50.792Z,6.54
2022-11-27T06:10:18.080Z,6.18
2022-11-27T06:12:45.011Z,6.83
2022-11-27T06:15:12.045Z,7.05
2022-11-27T06:17:38.979Z,6.87
2022-11-27T06:20:07.111Z,6.59
2022-11-27T06:22:34.059Z,6.81
2022-11-27T06:25:01.018Z,7.02
2022-11-27T06:27:36.172Z,7.39
2022-11-27T06:30:04.522Z,6.63
2022-11-27T06:32:31.845Z,6.55
2022-11-27T06:34:58.933Z,6.78
2022-11-27T06:37:26.194Z,6.62
2022-11-27T06:39:53.100Z,6.88
2022-11-27T06:42:20.366Z,7.23
2022-11-27T06:44:48.052Z,6.71
2022-11-27T06:47:15.309Z,6.90
2022-11-27T06:49:42.275Z,6.76
2022-11-27T06:52:09.407Z,7.24
2022-11-27T06:54:36.338Z,6.99
2022-11-27T06:57:03.337Z,7.15
2022-11-27T06:59:30.689Z,7.35
2022-11-27T07:01:57.827Z,7.09
2022-11-27T07:04:24.792Z,6.80
2022-11-27T07:06:54.379Z,7.16
2022-11-27T07:09:21.654Z,7.51
2022-11-27T07:11:48.560Z,7.61
2022-11-27T07:14:15.611Z,6.95
2022-11-27T07:16:42.919Z,6.54
2022-11-27T07:19:10.934Z,6.72
2022-11-27T07:21:38.488Z,6.59
2022-11-27T07:24:06.235Z,7.16
2022-11-27T07:26:33.356Z,7.35
2022-11-27T07:29:00.306Z,6.67
2022-11-27T07:31:30.499Z,7.57
2022-11-27T07:33:58.170Z,7.53
2022-11-27T07:36:29.449Z,7.55
2022-11-27T07:38:57.922Z,6.11
2022-11-27T07:41:30.573Z,6.11
2022-11-27T07:44:00.990Z,5.89
2022-11-27T07:46:28.063Z,6.99
2022-11-27T07:48:55.168Z,7.35
2022-11-27T07:51:22.925Z,7.73
2022-11-27T07:53:52.110Z,7.56
2022-11-27T07:56:20.105Z,7.28
2022-11-27T07:58:47.763Z,7.10
2022-11-27T08:01:18.850Z,7.63
2022-11-27T08:03:47.079Z,7.59
2022-11-27T08:06:26.395Z,7.39
2022-11-27T08:08:56.636Z,7.30
2022-11-27T08:11:29.639Z,7.17
2022-11-27T08:14:03.803Z,7.38
2022-11-27T08:16:33.531Z,7.80
2022-11-27T08:19:00.751Z,7.97
2022-11-27T08:21:29.318Z,7.53
2022-11-27T08:23:57.665Z,7.74
2022-11-27T08:26:27.520Z,6.64
2022-11-27T08:28:56.317Z,7.17
2022-11-27T08:31:24.063Z,7.78
2022-11-27T08:33:51.395Z,6.75
2022-11-27T08:36:18.710Z,7.37
2022-11-27T08:38:46.684Z,7.29
2022-11-27T08:41:14.300Z,7.17
2022-11-27T08:43:41.291Z,7.34
2022-11-27T08:46:11.283Z,7.39
2022-11-27T08:48:38.967Z,7.43
2022-11-27T08:51:09.076Z,7.86
2022-11-27T08:53:37.673Z,7.81
2022-11-27T08:56:15.740Z,7.92
2022-11-27T08:58:43.177Z,8.50
2022-11-27T09:01:36.743Z,7.15
2022-11-27T09:04:04.168Z,7.81
2022-11-27T09:06:34.896Z,7.83
2022-11-27T09:09:05.267Z,8.03
2022-11-27T09:11:34.644Z,8.29
2022-11-27T09:14:04.178Z,7.97
2022-11-27T09:16:32.312Z,7.71
2022-11-27T09:18:59.396Z,7.64
2022-11-27T09:21:28.674Z,7.99
2022-11-27T09:24:00.901Z,7.51
2022-11-27T09:26:29.322Z,7.95
2022-11-27T09:28:58.404Z,8.39
2022-11-27T09:31:26.468Z,8.64
2022-11-27T09:33:53.939Z,8.50
2022-11-27T09:36:25.298Z,7.88
2022-11-27T09:38:52.941Z,8.48
2022-11-27T09:41:19.882Z,8.19
2022-11-27T09:43:59.057Z,8.43
2022-11-27T09:46:39.844Z,7.40
2022-11-27T09:49:35.834Z,7.73
2022-11-27T09:52:10.438Z,7.84
2022-11-27T09:55:01.398Z,7.62
2022-11-27T09:57:36.259Z,7.60
2022-11-27T10:00:22.169Z,8.29
2022-11-27T10:02:49.244Z,7.26
2022-11-27T10:05:44.746Z,7.20
2022-11-27T10:08:51.521Z,7.20
2022-11-27T10:11:28.968Z,7.69
2022-11-27T10:14:28.923Z,7.56
2022-11-27T10:17:22.846Z,8.33
2022-11-27T10:20:16.123Z,7.57
2022-11-27T10:23:04.843Z,8.66
2022-11-27T10:26:19.004Z,9.01
2022-11-27T10:29:30.077Z,8.56
2022-11-27T10:32:06.740Z,8.96
2022-11-27T10:34:52.629Z,7.64
2022-11-27T10:37:33.598Z,7.70
2022-11-27T10:40:23.207Z,7.60
2022-11-27T10:43:25.250Z,8.15
2022-11-27T10:46:12.789Z,8.07
2022-11-27T10:48:40.774Z,8.31
2022-11-27T10:51:37.381Z,8.20
2022-11-27T10:54:07.238Z,8.44
2022-11-27T10:56:56.393Z,8.19
2022-11-27T10:59:35.850Z,9.22
2022-11-27T11:02:06.282Z,8.90
2022-11-27T11:04:38.464Z,9.24
2022-11-27T11:07:29.407Z,9.59
2022-11-27T11:09:56.833Z,9.17
2022-11-27T11:12:24.347Z,9.45
2022-11-27T11:15:00.560Z,9.45
2022-11-27T11:17:34.891Z,9.86
2022-11-27T11:20:21.935Z,8.67
2022-11-27T11:22:50.175Z,8.68
2022-11-27T11:25:20.716Z,9.09
2022-11-27T11:27:51.439Z,9.39
2022-11-27T11:30:29.815Z,9.59
2022-11-27T11:33:02.902Z,9.15
2022-11-27T11:35:35.962Z,9.73
2022-11-27T11:38:16.969Z,8.82
2022-11-27T11:40:46.784Z,9.16
2022-11-27T11:43:30.780Z,9.06
2022-11-27T11:46:08.294Z,9.26
2022-11-27T11:48:37.954Z,9.36
2022-11-27T11:51:24.970Z,9.34
2022-11-27T11:54:30.333Z,9.42
2022-11-27T11:57:03.128Z,9.53
2022-11-27T12:00:05.246Z,9.93
2022-11-27T12:03:18.880Z,10.09
2022-11-27T12:06:52.155Z,9.96
2022-11-27T12:10:11.988Z,9.80
2022-11-27T12:13:17.356Z,9.65
2022-11-27T12:15:59.010Z,10.38
2022-11-27T12:19:08.289Z,10.01
2022-11-27T12:21:58.539Z,9.89
2022-11-27T12:24:59.205Z,10.16
2022-11-27T12:27:53.781Z,10.14
2022-11-27T12:30:24.228Z,9.93
2022-11-27T12:33:55.571Z,10.32
2022-11-27T12:36:49.656Z,9.90
2022-11-27T12:39:50.526Z,10.03
2022-11-27T12:43:08.612Z,10.48
2022-11-27T12:45:46.406Z,9.97
2022-11-27T12:48:21.206Z,9.79
2022-11-27T12:50:58.487Z,10.11
2022-11-27T12:53:52.249Z,10.14
2022-11-27T12:56:32.931Z,9.73
2022-11-27T12:59:18.979Z,9.56
2022-11-27T13:02:01.496Z,9.93
2022-11-27T13:04:57.001Z,10.40
2022-11-27T13:07:58.043Z,10.28
2022-11-27T13:10:44.382Z,10.32
2022-11-27T13:13:54.230Z,10.35
2022-11-27T13:16:45.670Z,10.87
2022-11-27T13:19:39.771Z,10.92
2022-11-27T13:22:15.865Z,9.96
2022-11-27T13:24:43.384Z,10.20
2022-11-27T13:27:20.891Z,10.55
2022-11-27T13:29:54.809Z,10.68
2022-11-27T13:32:40.768Z,10.24
2022-11-27T13:35:43.311Z,10.97
2022-11-27T13:38:24.604Z,10.12
2022-11-27T13:40:55.092Z,10.32
2022-11-27T13:43:37.105Z,10.56
2022-11-27T13:46:16.315Z,10.47
2022-11-27T13:48:51.466Z,10.51
2022-11-27T13:51:29.864Z,9.90
2022-11-27T13:54:25.942Z,10.51
2022-11-27T13:56:56.003Z,9.86
2022-11-27T13:59:25.549Z,10.24
2022-11-27T14:02:03.299Z,10.35
2022-11-27T14:04:31.901Z,10.03
2022-11-27T14:07:10.914Z,9.97
2022-11-27T14:09:54.391Z,10.33
2022-11-27T14:12:33.091Z,10.53
2022-11-27T14:15:21.480Z,10.75
2022-11-27T14:17:51.548Z,10.85
2022-11-27T14:20:23.759Z,10.27
2022-11-27T14:23:11.898Z,10.03
2022-11-27T14:25:40.190Z,10.28
2022-11-27T14:28:27.153Z,10.14
2022-11-27T14:31:01.325Z,10.36
2022-11-27T14:33:33.181Z,9.69
2022-11-27T14:36:07.782Z,10.03
2022-11-27T14:38:35.485Z,9.88
2022-11-27T14:41:18.380Z,9.46
2022-11-27T14:43:45.483Z,9.81
2022-11-27T14:46:18.109Z,9.96
2022-11-27T14:48:56.323Z,10.15
2022-11-27T14:51:35.668Z,10.35
2022-11-27T14:54:11.338Z,10.26
2022-11-27T14:56:43.265Z,10.71
2022-11-27T14:59:20.080Z,10.49
2022-11-27T15:02:13.907Z,10.18
2022-11-27T15:04:43.974Z,9.97
2022-11-27T15:07:29.279Z,9.84
2022-11-27T15:09:58.833Z,9.99
2022-11-27T15:12:34.389Z,9.80
2022-11-27T15:15:12.150Z,10.35
2022-11-27T15:17:40.446Z,10.34
2022-11-27T15:20:24.426Z,9.93
2022-11-27T15:22:57.468Z,10.21
2022-11-27T15:25:43.911Z,9.72
2022-11-27T15:28:44.660Z,10.43
2022-11-27T15:31:27.425Z,9.87
2022-11-27T15:34:15.580Z,9.84
2022-11-27T15:36:58.039Z,9.93
2022-11-27T15:39:37.987Z,9.46
2022-11-27T15:42:10.110Z,9.49
2022-11-27T15:44:41.093Z,9.44
2022-11-27T15:47:28.543Z,9.45
2022-11-27T15:49:56.922Z,9.55
2022-11-27T15:52:25.259Z,9.44
2022-11-27T15:54:52.432Z,9.58
2022-11-27T15:57:19.722Z,9.28
2022-11-27T15:59:46.690Z,9.74
2022-11-27T16:02:17.768Z,9.34
2022-11-27T16:04:45.492Z,9.26
2022-11-27T16:07:12.651Z,9.28
2022-11-27T16:09:40.199Z,8.91
2022-11-27T16:12:07.642Z,9.14
2022-11-27T16:14:37.631Z,9.22
2022-11-27T16:17:04.577Z,9.55
2022-11-27T16:19:31.586Z,9.53
2022-11-27T16:21:58.738Z,9.57
2022-11-27T16:24:25.728Z,9.29
2022-11-27T16:26:52.714Z,9.50
2022-11-27T16:29:19.691Z,9.48
2022-11-27T16:31:47.330Z,9.29
2022-11-27T16:34:16.433Z,8.96
2022-11-27T16:36:43.952Z,9.21
2022-11-27T16:39:12.253Z,9.11
2022-11-27T16:41:39.719Z,9.25
2022-11-27T16:44:13.156Z,8.96
2022-11-27T16:46:41.403Z,9.48
2022-11-27T16:49:09.075Z,9.67
2022-11-27T16:51:39.403Z,9.04
2022-11-27T16:54:11.033Z,9.17
2022-11-27T16:56:40.658Z,9.38
2022-11-27T16:59:14.417Z,9.36
2022-11-27T17:01:42.895Z,9.61
2022-11-27T17:04:18.638Z,9.50
2022-11-27T17:06:47.267Z,9.55
2022-11-27T17:09:15.234Z,9.65
2022-11-27T17:11:48.297Z,9.74
2022-11-27T17:14:16.257Z,9.67
2022-11-27T17:16:43.506Z,9.29
2022-11-27T17:19:15.525Z,9.60
2022-11-27T17:21:44.133Z,8.61
2022-11-27T17:24:15.622Z,9.14
2022-11-27T17:26:45.987Z,9.29
2022-11-27T17:29:18.107Z,9.48
2022-11-27T17:31:45.471Z,8.57
2022-11-27T17:34:16.593Z,8.74
2022-11-27T17:36:45.242Z,9.00
2022-11-27T17:39:14.954Z,9.04
2022-11-27T17:41:45.112Z,8.50
2022-11-27T17:44:20.687Z,9.26
2022-11-27T17:46:50.493Z,9.32
2022-11-27T17:49:19.775Z,9.29
2022-11-27T17:51:49.047Z,9.04
2022-11-27T17:54:16.938Z,8.91
2022-11-27T17:56:51.192Z,8.83
2022-11-27T17:59:21.122Z,8.71
2022-11-27T18:01:51.467Z,8.81
2022-11-27T18:04:19.662Z,8.64
2022-11-27T18:06:47.048Z,8.45
2022-11-27T18:09:14.018Z,8.50
2022-11-27T18:11:41.160Z,8.77
2022-11-27T18:14:13.613Z,8.93
2022-11-27T18:16:41.299Z,8.96
2022-11-27T18:19:11.466Z,9.37
2022-11-27T18:21:39.939Z,9.22
2022-11-27T18:24:24.643Z,9.62
2022-11-27T18:27:09.695Z,9.51
2022-11-27T18:29:44.562Z,9.16
2022-11-27T18:32:14.091Z,9.14
2022-11-27T18:34:46.020Z,8.84
2022-11-27T18:37:13.879Z,8.32
2022-11-27T18:39:41.526Z,9.06
2022-11-27T18:42:09.233Z,9.09
2022-11-27T18:44:44.426Z,9.34
2022-11-27T18:47:15.260Z,8.99
2022-11-27T18:49:44.999Z,8.73
2022-11-27T18:52:13.699Z,8.97
2022-11-27T18:54:41.244Z,9.21
2022-11-27T18:57:08.372Z,9.14
2022-11-27T18:59:35.671Z,8.76
2022-11-27T19:02:04.413Z,8.72
2022-11-27T19:04:31.751Z,8.37
2022-11-27T19:06:58.747Z,8.70
2022-11-27T19:09:26.182Z,9.20
2022-11-27T19:11:53.692Z,9.63
2022-11-27T19:14:20.947Z,9.00
2022-11-27T19:16:48.595Z,8.35
2022-11-27T19:22:10.943Z,8.75
2022-11-27T19:24:40.045Z,8.76
2022-11-27T19:27:07.227Z,8.42
2022-11-27T19:29:35.031Z,9.02
2022-11-27T19:32:02.200Z,8.66
2022-11-27T19:34:29.478Z,9.28
2022-11-27T19:36:58.361Z,9.09
2022-11-27T19:39:27.135Z,8.87
2022-11-27T19:41:54.340Z,9.27
2022-11-27T19:44:21.350Z,9.21
2022-11-27T19:46:48.619Z,8.69
2022-11-27T19:49:21.500Z,8.33
2022-11-27T19:51:49.691Z,8.23
2022-11-27T19:54:19.399Z,8.53
2022-11-27T19:56:46.604Z,8.67
2022-11-27T19:59:14.266Z,8.31
2022-11-27T20:01:42.469Z,8.41
2022-11-27T20:04:16.062Z,8.53
2022-11-27T20:06:44.340Z,8.18
2022-11-27T20:09:13.534Z,8.75
2022-11-27T20:11:40.863Z,8.67
2022-11-27T20:14:08.543Z,9.04
2022-11-27T20:16:37.574Z,8.67
2022-11-27T20:19:07.325Z,8.28
2022-11-27T20:21:36.772Z,8.64
2022-11-27T20:24:04.452Z,8.66
2022-11-27T20:26:36.170Z,8.60
2022-11-27T20:29:05.818Z,8.76
2022-11-27T20:31:37.451Z,8.05
2022-11-27T20:34:06.577Z,8.52
2022-11-27T20:36:39.043Z,8.54
2022-11-27T20:39:06.707Z,8.55
2022-11-27T20:41:33.744Z,9.04
2022-11-27T20:44:04.598Z,9.07
2022-11-27T20:46:33.238Z,9.02
2022-11-27T20:49:01.617Z,9.14
2022-11-27T20:51:33.641Z,9.10
2022-11-27T20:54:07.598Z,8.88
2022-11-27T20:56:35.038Z,8.73
2022-11-27T20:59:02.472Z,8.91
2022-11-27T21:01:36.564Z,9.00
2022-11-27T21:04:09.751Z,9.29
2022-11-27T21:06:43.660Z,8.81
2022-11-27T21:09:12.402Z,8.54
2022-11-27T21:11:39.615Z,8.62
2022-11-27T21:14:12.575Z,8.68
2022-11-27T21:16:46.106Z,8.23
2022-11-27T21:19:24.408Z,7.99
2022-11-27T21:21:53.239Z,8.30
2022-11-27T21:24:24.115Z,7.91
2022-11-27T21:26:51.199Z,7.91
2022-11-27T21:29:18.554Z,8.25
2022-11-27T21:31:47.595Z,7.85
2022-11-27T21:34:15.505Z,8.54
2022-11-27T21:36:44.005Z,8.45
2022-11-27T21:39:13.065Z,8.22
2022-11-27T21:41:41.185Z,7.96
2022-11-27T21:44:08.107Z,8.07
2022-11-27T21:46:35.941Z,8.08
2022-11-27T21:49:05.931Z,8.00
2022-11-27T21:51:33.005Z,8.12
2022-11-27T21:54:08.369Z,8.44
2022-11-27T21:56:38.425Z,8.22
2022-11-27T21:59:09.317Z,8.16
2022-11-27T22:01:36.556Z,8.09
2022-11-27T22:04:04.544Z,8.19
2022-11-27T22:06:38.821Z,8.21
2022-11-27T22:09:11.859Z,8.25
2022-11-27T22:11:45.769Z,7.96
2022-11-27T22:14:16.368Z,7.97
2022-11-27T22:16:46.225Z,8.45
2022-11-27T22:19:15.450Z,8.59
2022-11-27T22:21:43.235Z,8.50
2022-11-27T22:24:16.735Z,7.95
2022-11-27T22:26:48.111Z,7.99
2022-11-27T22:29:15.236Z,8.21
2022-11-27T22:31:42.387Z,8.03
2022-11-27T22:34:09.504Z,8.56
2022-11-27T22:36:36.636Z,7.73
2022-11-27T22:39:08.346Z,8.13
2022-11-27T22:41:38.649Z,8.08
2022-11-27T22:44:18.032Z,8.17
2022-11-27T22:46:45.941Z,8.64
2022-11-27T22:49:16.382Z,8.59
2022-11-27T22:51:44.529Z,8.05
2022-11-27T22:54:15.166Z,8.19
2022-11-27T22:56:45.596Z,8.18
2022-11-27T23:02:03.764Z,7.89
2022-11-27T23:04:31.043Z,8.45
2022-11-27T23:06:58.295Z,7.98
2022-11-27T23:09:25.386Z,8.50
2022-11-27T23:11:52.812Z,8.26
2022-11-27T23:14:19.968Z,8.01
2022-11-27T23:16:47.107Z,7.72
2022-11-27T23:19:14.574Z,7.74
2022-11-27T23:21:42.290Z,7.67
2022-11-27T23:24:13.658Z,7.78
2022-11-27T23:26:41.204Z,7.92
2022-11-27T23:29:08.978Z,7.74
2022-11-27T23:31:36.534Z,7.69
2022-11-27T23:34:07.751Z,7.80
2022-11-27T23:36:35.399Z,7.71
2022-11-27T23:39:05.414Z,7.82
2022-11-27T23:41:33.313Z,8.20
2022-11-27T23:44:01.491Z,7.92
2022-11-27T23:46:30.116Z,7.71
2022-11-27T23:48:59.845Z,7.62
2022-11-27T23:51:31.881Z,7.93
2022-11-27T23:54:00.274Z,8.05
2022-11-27T23:56:31.155Z,8.13
2022-11-27T23:58:59.520Z,7.80
